メインページ
METAR-TAF:

METAR-TAF

空港 :

ムンバイ, インド

緯度: 19-05-53N, 経度: 072-50-02E, 海抜: 4m

現時点の気象観測

当レポートは3時間37分前の12:30(UTC)に作成
無風
気温 29°C
湿度 74%
気圧 999 hPa
視程: 3000m
高度1800ftの雲は散在している
高度3000ftの雲はほとんどない, 積乱雲.
高度10000ftの千切れ雲あり
煙霧,

METAR: VAJJ 221230Z 00000KT 3000 HZ SCT018 FEW030CB BKN100 29/24 Q0999 NOSIG

時間: 21:37 (16:07 UTC)


TAF: 見つかりません

4,000以上の空港の気象観測と天気予報(METAR報とTAF報)

利用可能な観測所は地図上に黄色い丸と赤い丸で示す。

丸の上にカーソルを重ねると観測所名を参照できる。

次にクリックすると気象観測と天気予報を参照できる。

マップの切り替え:黒色「×」印の緑ボタンをクリックして拡大、「-」印の緑ボタンをクリックして縮小、緑色の三角印をクリックして隣りの地図に切り替え


METAR-TAF: